Time;durP1;ratioP1;P1;durP2;ratioP2;P2;SDS_P1;SDS_P2;PMS_P1;PMS_P2;Temp;Humidity;BMP_temperature;BMP_pressure;BME280_temperature;BME280_humidity;BME280_pressure;Samples;Min_cycle;Max_cycle;Signal;HPM_P1;HPM_P2
2023/07/24 00:02:14;;;;;;;2.13;1.33;;;20.30;98.10;;;;;;5043485;28;20029;-16
2023/07/24 00:04:39;;;;;;;2.10;1.37;;;20.30;97.90;;;;;;5046912;28;20563;-17
2023/07/24 00:07:05;;;;;;;2.53;1.30;;;20.30;97.90;;;;;;4991485;28;20563;-18
2023/07/24 00:09:31;;;;;;;1.90;1.20;;;20.30;98.00;;;;;;5045826;28;20187;-18
2023/07/24 00:11:57;;;;;;;1.70;1.27;;;20.30;98.00;;;;;;5039003;28;20051;-16
2023/07/24 00:14:23;;;;;;;1.70;1.30;;;20.30;98.00;;;;;;5035304;28;20566;-17
2023/07/24 00:16:49;;;;;;;2.30;1.40;;;20.30;98.10;;;;;;5047845;28;20051;-17
2023/07/24 00:19:14;;;;;;;2.28;1.60;;;20.30;98.10;;;;;;5048858;28;20068;-17
2023/07/24 00:21:40;;;;;;;2.23;1.37;;;20.30;98.00;;;;;;5044213;28;20116;-17
2023/07/24 00:24:06;;;;;;;3.25;1.45;;;20.30;98.00;;;;;;5022761;28;20114;-16
2023/07/24 00:26:31;;;;;;;2.20;1.30;;;20.30;98.00;;;;;;5034965;28;20209;-17
2023/07/24 00:28:58;;;;;;;4.03;1.70;;;20.30;98.10;;;;;;5050469;28;20586;-17
2023/07/24 00:31:24;;;;;;;3.15;1.75;;;20.30;98.10;;;;;;5045575;28;20032;-17
2023/07/24 00:33:50;;;;;;;4.03;1.63;;;20.30;98.10;;;;;;5031796;28;20554;-17
2023/07/24 00:36:15;;;;;;;2.27;1.50;;;20.30;98.10;;;;;;5043848;28;20031;-16
2023/07/24 00:38:41;;;;;;;2.20;1.40;;;20.30;98.20;;;;;;5020352;28;21410;-16
2023/07/24 00:41:07;;;;;;;3.17;1.45;;;20.30;98.20;;;;;;5048216;28;20040;-17
2023/07/24 00:43:33;;;;;;;3.83;1.73;;;20.30;98.20;;;;;;5034145;28;20097;-17
2023/07/24 00:45:59;;;;;;;4.22;1.60;;;20.30;98.30;;;;;;5050858;28;20052;-16
2023/07/24 00:48:24;;;;;;;3.13;1.60;;;20.30;98.30;;;;;;5049647;28;20039;-15
2023/07/24 00:50:50;;;;;;;2.15;1.48;;;20.30;98.40;;;;;;5051185;28;20028;-19
2023/07/24 00:53:18;;;;;;;2.80;1.60;;;20.40;98.40;;;;;;5032919;28;20126;-15
2023/07/24 00:55:45;;;;;;;2.73;1.40;;;20.40;98.50;;;;;;5038526;28;20121;-17
2023/07/24 00:58:11;;;;;;;2.80;1.67;;;20.30;98.40;;;;;;5039289;28;20064;-16
2023/07/24 01:00:40;;;;;;;2.50;1.70;;;20.30;98.40;;;;;;5049732;28;20029;-17
2023/07/24 01:03:07;;;;;;;3.30;1.70;;;20.40;98.40;;;;;;5050211;28;20393;-17
2023/07/24 01:05:32;;;;;;;2.33;1.50;;;20.40;98.50;;;;;;5031690;28;20277;-17
2023/07/24 01:07:58;;;;;;;2.60;1.50;;;20.40;98.50;;;;;;5056527;28;20052;-17
2023/07/24 01:10:24;;;;;;;2.63;1.57;;;20.40;98.50;;;;;;5021876;28;20044;-15
2023/07/24 01:13:09;;;;;;;2.22;1.50;;;20.40;98.50;;;;;;5046638;28;20044;-17
2023/07/24 01:15:45;;;;;;;3.08;1.52;;;20.40;98.50;;;;;;5035696;28;20170;-17
2023/07/24 01:18:13;;;;;;;3.22;1.73;;;20.30;98.50;;;;;;5028992;28;20059;-15
2023/07/24 01:20:47;;;;;;;2.47;1.70;;;20.30;98.60;;;;;;5048536;28;20025;-17
2023/07/24 01:23:29;;;;;;;3.40;1.60;;;20.30;98.50;;;;;;5046966;28;20033;-16
2023/07/24 01:26:00;;;;;;;3.30;1.80;;;20.30;98.50;;;;;;5020924;28;20037;-19
2023/07/24 01:28:26;;;;;;;2.63;1.60;;;20.30;98.60;;;;;;5052709;28;20083;-19
2023/07/24 01:30:52;;;;;;;4.38;1.80;;;20.30;98.60;;;;;;5037979;28;20368;-19
2023/07/24 01:33:19;;;;;;;2.53;1.70;;;20.30;98.60;;;;;;5049957;28;20569;-18
2023/07/24 01:35:46;;;;;;;4.03;1.80;;;20.30;98.70;;;;;;5046522;28;20017;-19
2023/07/24 01:38:14;;;;;;;3.95;2.00;;;20.30;98.70;;;;;;5047466;28;20632;-18
2023/07/24 01:40:41;;;;;;;3.65;1.92;;;20.30;98.70;;;;;;5004844;28;21436;-18
2023/07/24 01:43:07;;;;;;;3.05;1.92;;;20.30;98.70;;;;;;5034235;28;20031;-16
2023/07/24 01:45:32;;;;;;;3.23;1.70;;;20.30;98.80;;;;;;5032422;28;20669;-18
2023/07/24 01:47:59;;;;;;;3.25;2.00;;;20.30;98.80;;;;;;5044844;28;20476;-17
2023/07/24 01:50:25;;;;;;;3.20;1.60;;;20.20;98.70;;;;;;5045174;28;20028;-16
2023/07/24 01:52:51;;;;;;;3.13;1.70;;;20.20;98.70;;;;;;5046238;28;20067;-16
2023/07/24 01:55:16;;;;;;;2.17;1.35;;;20.20;98.80;;;;;;5032591;28;20098;-16
2023/07/24 01:57:42;;;;;;;3.07;1.50;;;20.10;98.90;;;;;;5038750;28;20439;-19
2023/07/24 02:00:08;;;;;;;2.17;1.25;;;20.10;99.00;;;;;;5050766;28;20033;-16
2023/07/24 02:02:34;;;;;;;1.60;0.97;;;20.10;99.10;;;;;;5035241;28;20090;-16
2023/07/24 02:05:00;;;;;;;1.65;1.10;;;20.00;99.10;;;;;;5050166;28;20503;-17
2023/07/24 02:07:25;;;;;;;1.37;1.10;;;20.10;99.20;;;;;;5043841;28;20053;-16
2023/07/24 02:09:51;;;;;;;1.80;1.20;;;20.00;99.20;;;;;;5048299;28;20488;-16
2023/07/24 02:12:16;;;;;;;1.10;0.97;;;20.00;99.30;;;;;;5018502;28;20127;-16
2023/07/24 02:14:42;;;;;;;1.70;1.10;;;20.00;99.40;;;;;;5046882;28;20029;-16
2023/07/24 02:17:08;;;;;;;1.40;1.00;;;20.00;99.50;;;;;;5037412;28;20033;-16
2023/07/24 02:19:33;;;;;;;1.65;1.10;;;20.00;99.50;;;;;;5033693;28;20033;-16
2023/07/24 02:21:59;;;;;;;1.37;0.90;;;20.00;99.60;;;;;;5048204;28;20032;-16
2023/07/24 02:24:25;;;;;;;1.60;1.02;;;20.00;99.60;;;;;;5043492;28;20085;-16
2023/07/24 02:26:51;;;;;;;1.40;0.90;;;20.00;99.60;;;;;;5021331;28;20029;-16
2023/07/24 02:29:16;;;;;;;1.70;1.00;;;20.00;99.70;;;;;;5045497;28;20067;-16
2023/07/24 02:31:42;;;;;;;1.03;0.93;;;20.00;99.70;;;;;;5045121;28;20231;-16
2023/07/24 02:34:08;;;;;;;1.05;0.90;;;19.90;99.70;;;;;;5035347;28;20443;-16
2023/07/24 02:36:34;;;;;;;1.30;0.90;;;19.90;99.70;;;;;;5046454;28;20461;-16
2023/07/24 02:38:59;;;;;;;1.10;0.90;;;19.90;99.60;;;;;;5049236;28;20044;-16
2023/07/24 02:41:25;;;;;;;1.80;0.93;;;19.90;99.50;;;;;;5044578;28;20020;-18
2023/07/24 02:43:50;;;;;;;1.33;0.90;;;19.90;99.50;;;;;;5021061;28;20282;-16
2023/07/24 02:46:16;;;;;;;1.40;0.87;;;19.90;99.40;;;;;;5047558;28;20025;-16
2023/07/24 02:48:42;;;;;;;1.45;0.90;;;19.90;99.30;;;;;;5032921;28;20334;-15
2023/07/24 02:51:08;;;;;;;1.20;0.93;;;19.90;99.30;;;;;;5044974;28;20017;-16
2023/07/24 02:53:33;;;;;;;1.33;0.90;;;19.80;99.20;;;;;;5036764;28;20241;-15
2023/07/24 02:56:02;;;;;;;1.27;1.00;;;19.80;99.20;;;;;;5045181;28;20025;-15
2023/07/24 02:58:27;;;;;;;1.15;0.93;;;19.70;99.10;;;;;;5012916;28;20036;-16
2023/07/24 03:00:53;;;;;;;1.23;1.00;;;19.70;99.50;;;;;;5047204;28;20021;-15
2023/07/24 03:03:19;;;;;;;1.50;1.03;;;19.70;99.20;;;;;;5022185;28;20024;-15
2023/07/24 03:05:45;;;;;;;2.80;1.10;;;19.70;99.20;;;;;;5041934;28;20029;-16
2023/07/24 03:08:10;;;;;;;1.23;1.10;;;19.60;99.20;;;;;;5045232;28;20106;-16
2023/07/24 03:10:41;;;;;;;1.58;0.95;;;19.60;99.30;;;;;;5045176;28;20039;-16
2023/07/24 03:13:06;;;;;;;2.08;1.05;;;19.60;99.30;;;;;;5048454;28;20032;-15
2023/07/24 03:15:32;;;;;;;1.63;1.03;;;19.60;99.40;;;;;;5020377;28;20041;-16
2023/07/24 03:17:58;;;;;;;1.88;1.00;;;19.60;99.40;;;;;;5046070;28;20085;-15
2023/07/24 03:20:24;;;;;;;1.83;0.93;;;19.60;99.40;;;;;;5020858;28;20041;-18
2023/07/24 03:22:50;;;;;;;1.53;1.03;;;19.50;99.40;;;;;;5045515;28;20075;-15
2023/07/24 03:25:15;;;;;;;1.50;1.00;;;19.50;99.40;;;;;;5043348;28;20024;-16
2023/07/24 03:27:41;;;;;;;1.70;1.08;;;19.50;99.40;;;;;;5045313;28;20105;-15
2023/07/24 03:30:07;;;;;;;1.90;1.20;;;19.50;99.30;;;;;;5021943;28;20030;-18
2023/07/24 03:32:33;;;;;;;1.80;1.10;;;19.50;99.30;;;;;;5044956;28;20636;-16
2023/07/24 03:34:58;;;;;;;2.20;1.23;;;19.50;99.20;;;;;;5047469;28;20119;-16
2023/07/24 03:37:24;;;;;;;1.77;1.27;;;19.40;99.10;;;;;;5037437;28;20541;-16
2023/07/24 03:39:50;;;;;;;1.52;1.10;;;19.30;99.00;;;;;;5045950;28;20503;-16
2023/07/24 03:42:36;;;;;;;1.87;1.20;;;19.30;99.00;;;;;;5048335;28;20058;-16
2023/07/24 03:45:01;;;;;;;1.95;1.10;;;19.30;98.80;;;;;;5000039;28;20260;-16
2023/07/24 03:47:27;;;;;;;1.40;1.05;;;19.20;99.10;;;;;;5028402;28;20033;-15
2023/07/24 03:49:53;;;;;;;1.70;1.20;;;19.20;99.20;;;;;;5049540;28;20107;-16
2023/07/24 03:52:19;;;;;;;1.55;1.00;;;19.10;99.20;;;;;;5031855;28;20602;-16
2023/07/24 03:54:45;;;;;;;1.63;1.20;;;19.10;99.30;;;;;;5044894;28;20032;-16
2023/07/24 03:57:10;;;;;;;1.60;1.00;;;19.00;99.30;;;;;;5044338;28;20512;-16
2023/07/24 03:59:36;;;;;;;1.30;1.00;;;19.00;99.30;;;;;;5045544;28;20033;-16
2023/07/24 04:02:02;;;;;;;1.37;1.00;;;19.00;99.40;;;;;;5017190;28;20331;-15
2023/07/24 04:04:27;;;;;;;1.17;1.00;;;19.00;99.40;;;;;;5042019;28;20025;-16
2023/07/24 04:06:53;;;;;;;1.30;1.00;;;19.00;99.30;;;;;;5021395;28;20021;-16
2023/07/24 04:09:19;;;;;;;1.30;0.90;;;19.00;99.40;;;;;;5047683;28;20035;-16
2023/07/24 04:11:45;;;;;;;1.53;1.00;;;18.90;99.40;;;;;;5047791;28;20037;-16
2023/07/24 04:14:10;;;;;;;1.30;1.00;;;19.00;99.50;;;;;;5042943;28;20033;-16
2023/07/24 04:16:36;;;;;;;1.03;0.70;;;19.00;99.60;;;;;;5020955;28;20032;-16
2023/07/24 04:19:03;;;;;;;0.90;0.80;;;19.00;99.70;;;;;;5029518;28;20629;-15
2023/07/24 04:21:29;;;;;;;1.10;0.80;;;18.90;99.70;;;;;;5053267;28;20083;-15
2023/07/24 04:23:55;;;;;;;1.42;0.90;;;19.00;99.80;;;;;;5033993;28;20428;-16
2023/07/24 04:26:20;;;;;;;1.67;0.90;;;18.90;99.80;;;;;;5045536;28;20028;-15
2023/07/24 04:28:46;;;;;;;1.00;0.70;;;19.00;99.90;;;;;;5060144;28;20017;-16
2023/07/24 04:31:11;;;;;;;1.10;0.80;;;18.90;99.90;;;;;;5046491;28;20190;-18
2023/07/24 04:33:38;;;;;;;1.25;0.90;;;18.90;99.90;;;;;;5017801;28;20055;-17
2023/07/24 04:36:04;;;;;;;1.13;0.80;;;19.00;99.90;;;;;;5046458;28;20043;-15
2023/07/24 04:38:29;;;;;;;1.48;1.00;;;19.00;99.90;;;;;;5006222;28;20118;-15
2023/07/24 04:40:55;;;;;;;2.67;0.98;;;18.90;99.80;;;;;;5046839;28;20121;-16
2023/07/24 04:43:21;;;;;;;1.03;0.90;;;18.90;99.70;;;;;;5047108;28;20025;-16
2023/07/24 04:45:46;;;;;;;1.45;1.00;;;18.90;99.60;;;;;;5056895;28;20050;-15
2023/07/24 04:48:12;;;;;;;1.23;0.90;;;18.90;99.60;;;;;;5016459;28;20032;-19
2023/07/24 04:50:38;;;;;;;1.50;1.02;;;18.90;99.60;;;;;;5041442;28;20035;-17
2023/07/24 04:53:04;;;;;;;1.67;1.00;;;18.90;99.60;;;;;;5035394;28;20036;-15
2023/07/24 04:55:29;;;;;;;1.55;1.08;;;19.00;99.70;;;;;;5044666;28;20567;-15
2023/07/24 04:57:55;;;;;;;1.40;1.00;;;19.00;99.80;;;;;;5043558;28;20029;-15
2023/07/24 05:00:21;;;;;;;1.52;1.00;;;18.90;99.90;;;;;;5050142;28;20025;-15
2023/07/24 05:02:46;;;;;;;1.10;1.00;;;18.90;99.90;;;;;;5019769;28;20109;-15
2023/07/24 05:05:12;;;;;;;1.10;1.00;;;18.90;99.90;;;;;;5052011;28;20112;-15
2023/07/24 05:07:38;;;;;;;1.43;0.97;;;19.00;99.90;;;;;;5036050;28;20118;-16
2023/07/24 05:10:04;;;;;;;1.20;0.90;;;19.00;99.90;;;;;;5044993;28;20052;-15
2023/07/24 05:12:30;;;;;;;1.40;1.10;;;19.00;99.90;;;;;;5047512;28;20025;-16
2023/07/24 05:14:55;;;;;;;2.33;1.00;;;19.00;99.90;;;;;;5045628;28;20176;-15
2023/07/24 05:17:21;;;;;;;1.30;0.95;;;19.10;99.90;;;;;;5050361;28;20016;-15
2023/07/24 05:19:47;;;;;;;2.00;1.10;;;19.00;99.90;;;;;;5021297;28;20443;-15
2023/07/24 05:22:12;;;;;;;1.33;1.00;;;19.10;99.90;;;;;;5051714;28;20481;-15
2023/07/24 05:24:38;;;;;;;1.27;0.93;;;19.10;99.90;;;;;;5034579;28;20037;-15
2023/07/24 05:27:05;;;;;;;2.53;1.00;;;19.10;99.90;;;;;;5047534;28;20029;-15
2023/07/24 05:29:30;;;;;;;2.20;1.37;;;19.10;99.90;;;;;;5047706;28;20025;-15
2023/07/24 05:31:56;;;;;;;1.63;1.00;;;19.20;99.90;;;;;;5050180;28;20569;-15
2023/07/24 05:34:22;;;;;;;1.50;1.00;;;19.20;99.90;;;;;;5022153;28;20146;-15
2023/07/24 05:36:48;;;;;;;1.33;0.87;;;19.20;99.90;;;;;;5044563;28;20320;-15
2023/07/24 05:39:13;;;;;;;1.33;0.95;;;19.30;99.90;;;;;;5045523;28;20589;-15
2023/07/24 05:41:39;;;;;;;1.13;0.97;;;19.30;99.90;;;;;;5048337;28;20056;-17
2023/07/24 05:44:05;;;;;;;1.30;1.00;;;19.30;99.90;;;;;;5046131;28;20676;-15
2023/07/24 05:46:31;;;;;;;1.37;1.00;;;19.40;99.90;;;;;;5054329;28;20048;-15
2023/07/24 05:48:56;;;;;;;1.70;1.20;;;19.40;99.90;;;;;;5036730;28;20377;-18
2023/07/24 05:51:22;;;;;;;1.47;1.07;;;19.40;99.90;;;;;;5021667;28;20488;-15
2023/07/24 05:53:49;;;;;;;1.70;1.20;;;19.50;99.90;;;;;;5038057;28;20738;-15
2023/07/24 05:56:14;;;;;;;1.40;1.00;;;19.50;99.90;;;;;;5034355;28;20037;-15
2023/07/24 05:58:40;;;;;;;1.67;1.02;;;19.60;99.90;;;;;;5051443;28;20184;-15
2023/07/24 06:01:09;;;;;;;2.23;1.40;;;19.60;99.90;;;;;;5054908;28;20094;-15
2023/07/24 06:03:35;;;;;;;1.98;1.05;;;19.70;99.90;;;;;;5041872;28;20258;-15
2023/07/24 06:06:01;;;;;;;1.50;1.07;;;19.70;99.90;;;;;;5024914;28;20017;-15
2023/07/24 06:08:26;;;;;;;1.92;1.20;;;19.80;99.90;;;;;;5042516;28;20024;-14
2023/07/24 06:10:52;;;;;;;1.40;1.00;;;19.80;99.90;;;;;;5037850;28;20024;-15
2023/07/24 06:13:18;;;;;;;1.60;1.02;;;19.80;99.90;;;;;;5048319;28;20403;-15
2023/07/24 06:15:47;;;;;;;1.85;1.05;;;19.80;99.90;;;;;;5045673;28;20043;-15
2023/07/24 06:18:12;;;;;;;2.03;1.20;;;19.90;99.90;;;;;;5031644;28;20141;-15
2023/07/24 06:20:38;;;;;;;2.10;0.90;;;19.90;99.90;;;;;;5045908;28;20587;-15
2023/07/24 06:23:04;;;;;;;1.53;1.03;;;19.90;99.90;;;;;;5020476;28;20048;-15
2023/07/24 06:25:31;;;;;;;1.73;1.27;;;20.00;99.90;;;;;;5035585;28;20350;-17
2023/07/24 06:27:57;;;;;;;1.90;1.10;;;20.00;99.90;;;;;;5054768;28;20090;-15
2023/07/24 06:30:23;;;;;;;1.63;1.10;;;20.00;99.90;;;;;;5045590;28;20028;-15
2023/07/24 06:32:48;;;;;;;1.48;1.20;;;20.10;99.90;;;;;;5047090;28;20028;-17
2023/07/24 06:35:14;;;;;;;2.28;1.38;;;20.10;99.90;;;;;;5048480;28;20021;-15
2023/07/24 06:37:40;;;;;;;1.40;1.10;;;20.10;99.90;;;;;;5018334;28;20386;-16
2023/07/24 06:40:08;;;;;;;1.27;1.00;;;20.20;99.90;;;;;;5048501;28;20021;-15
2023/07/24 06:42:34;;;;;;;1.77;1.27;;;20.20;99.90;;;;;;5040824;28;20047;-16
2023/07/24 06:45:00;;;;;;;1.73;1.07;;;20.30;99.90;;;;;;5049198;28;20044;-15
2023/07/24 06:47:26;;;;;;;2.40;1.35;;;20.30;99.90;;;;;;5044474;28;20061;-15
2023/07/24 06:49:52;;;;;;;1.80;1.13;;;20.30;99.90;;;;;;5050239;28;20036;-15
2023/07/24 06:52:17;;;;;;;1.80;1.20;;;20.30;99.90;;;;;;5030219;28;20028;-16
2023/07/24 06:54:43;;;;;;;1.80;1.20;;;20.40;99.90;;;;;;5035960;28;20029;-15
2023/07/24 06:57:09;;;;;;;2.00;1.30;;;20.50;99.90;;;;;;5038349;28;20035;-15
2023/07/24 06:59:35;;;;;;;1.80;1.23;;;20.50;99.90;;;;;;5059144;28;20387;-15
2023/07/24 07:02:00;;;;;;;1.67;1.20;;;20.50;99.90;;;;;;5045851;28;20275;-15
2023/07/24 07:04:26;;;;;;;1.93;1.43;;;20.50;99.90;;;;;;5040573;28;20031;-15
2023/07/24 07:06:52;;;;;;;2.45;1.40;;;20.50;99.90;;;;;;5064468;28;20032;-15
2023/07/24 07:09:17;;;;;;;2.08;1.20;;;20.60;99.90;;;;;;5017315;28;20033;-15
2023/07/24 07:11:44;;;;;;;1.70;1.10;;;20.60;99.90;;;;;;5034279;28;20111;-15
2023/07/24 07:14:10;;;;;;;1.70;1.25;;;20.70;99.90;;;;;;5046503;28;20038;-15
2023/07/24 07:16:36;;;;;;;2.03;1.33;;;20.80;99.90;;;;;;5028693;28;20498;-14
2023/07/24 07:19:02;;;;;;;2.13;1.30;;;20.80;99.90;;;;;;5053335;28;20029;-15
2023/07/24 07:21:28;;;;;;;2.00;1.30;;;20.90;99.90;;;;;;5043870;28;20025;-15
2023/07/24 07:23:54;;;;;;;1.67;1.30;;;21.00;99.90;;;;;;5047801;28;20017;-15
2023/07/24 07:26:20;;;;;;;1.73;1.20;;;21.10;99.90;;;;;;5018088;28;20032;-15
2023/07/24 07:28:46;;;;;;;2.60;1.50;;;21.20;99.90;;;;;;5034393;28;20435;-15
2023/07/24 07:31:12;;;;;;;1.75;1.40;;;21.30;99.90;;;;;;5047542;28;20426;-15
2023/07/24 07:33:38;;;;;;;1.40;1.20;;;21.30;99.90;;;;;;5041799;28;20620;-15
2023/07/24 07:36:05;;;;;;;2.83;1.50;;;21.30;99.90;;;;;;5053156;28;20021;-15
2023/07/24 07:38:31;;;;;;;2.10;1.45;;;21.30;99.90;;;;;;5043011;28;20507;-15
2023/07/24 07:40:57;;;;;;;2.08;1.38;;;21.30;99.90;;;;;;5019262;28;20025;-15
2023/07/24 07:43:23;;;;;;;2.80;1.43;;;21.40;99.90;;;;;;5031104;28;20051;-16
2023/07/24 07:45:49;;;;;;;1.70;1.40;;;21.40;99.90;;;;;;5046359;28;20103;-16
2023/07/24 07:48:15;;;;;;;2.80;1.50;;;21.40;99.90;;;;;;5044911;28;20024;-16
2023/07/24 07:50:40;;;;;;;2.95;1.45;;;21.40;99.90;;;;;;5050633;28;20652;-16
2023/07/24 07:53:06;;;;;;;2.30;1.50;;;21.50;99.90;;;;;;5046022;28;20029;-15
2023/07/24 07:55:32;;;;;;;1.55;1.27;;;21.60;99.90;;;;;;5017361;28;20442;-16
2023/07/24 07:57:57;;;;;;;2.20;1.40;;;21.70;99.90;;;;;;5048416;28;20021;-16
2023/07/24 08:00:23;;;;;;;2.25;1.40;;;21.80;99.90;;;;;;5033745;28;20346;-16
2023/07/24 08:02:49;;;;;;;2.63;1.90;;;21.90;99.90;;;;;;5060166;28;20039;-15
2023/07/24 08:05:15;;;;;;;2.63;1.70;;;21.90;99.90;;;;;;5043591;28;20282;-16
2023/07/24 08:07:41;;;;;;;3.58;1.60;;;22.10;99.90;;;;;;5042459;28;20179;-16
2023/07/24 08:10:07;;;;;;;2.10;1.47;;;22.30;99.90;;;;;;5047622;28;20033;-16
2023/07/24 08:12:33;;;;;;;1.80;1.40;;;22.50;99.90;;;;;;5017457;28;20276;-15
2023/07/24 08:14:59;;;;;;;2.63;1.40;;;22.80;99.90;;;;;;5040976;28;20678;-16
2023/07/24 08:17:25;;;;;;;2.28;1.30;;;23.10;99.90;;;;;;5030270;28;20090;-16
2023/07/24 08:19:51;;;;;;;1.80;1.30;;;23.30;99.90;;;;;;5045998;28;20103;-16
2023/07/24 08:22:19;;;;;;;2.80;1.40;;;23.50;99.90;;;;;;5047923;28;20055;-16
2023/07/24 08:24:45;;;;;;;1.60;1.23;;;23.60;99.90;;;;;;5042033;28;20249;-16
2023/07/24 08:27:11;;;;;;;2.00;1.30;;;23.70;99.90;;;;;;5024190;28;20041;-16
2023/07/24 08:29:37;;;;;;;1.70;1.40;;;23.80;99.90;;;;;;5036453;28;20539;-16
2023/07/24 08:32:04;;;;;;;2.50;1.40;;;23.80;99.80;;;;;;5036285;28;20134;-17
2023/07/24 08:34:30;;;;;;;1.92;1.50;;;23.80;99.50;;;;;;5047621;28;20104;-17
2023/07/24 08:36:55;;;;;;;2.00;1.40;;;23.80;99.50;;;;;;5049218;28;20037;-16
2023/07/24 08:39:21;;;;;;;3.33;1.30;;;23.80;99.00;;;;;;5045837;28;20093;-16
2023/07/24 08:41:47;;;;;;;2.03;1.20;;;23.80;98.50;;;;;;5004830;28;21156;-16
2023/07/24 08:44:13;;;;;;;1.63;1.30;;;23.70;97.90;;;;;;5046151;28;20028;-16
2023/07/24 08:46:41;;;;;;;1.75;1.40;;;23.70;97.70;;;;;;5036761;28;20299;-17
2023/07/24 08:49:13;;;;;;;2.03;1.47;;;23.50;97.10;;;;;;5049818;28;20048;-17
2023/07/24 08:51:41;;;;;;;1.50;1.20;;;23.40;96.80;;;;;;5052357;28;20051;-17
2023/07/24 08:54:08;;;;;;;1.70;1.40;;;23.30;96.40;;;;;;5051962;28;20023;-17
2023/07/24 08:56:35;;;;;;;1.95;1.33;;;23.10;96.60;;;;;;5020904;28;20577;-17
2023/07/24 08:59:01;;;;;;;1.70;1.30;;;22.90;96.90;;;;;;5050241;28;20886;-17
2023/07/24 09:01:27;;;;;;;1.63;1.30;;;22.80;97.20;;;;;;5035293;28;20112;-18
2023/07/24 09:03:53;;;;;;;1.60;1.10;;;22.80;97.40;;;;;;5061399;28;20029;-17
2023/07/24 09:06:18;;;;;;;2.37;1.43;;;22.70;97.50;;;;;;5053714;28;20024;-17
2023/07/24 09:08:44;;;;;;;2.20;1.50;;;22.60;97.50;;;;;;5047064;28;20143;-17
2023/07/24 09:11:13;;;;;;;2.10;1.30;;;22.50;97.40;;;;;;5047565;28;20612;-19
2023/07/24 09:13:42;;;;;;;1.75;1.38;;;22.40;97.30;;;;;;5004899;28;20206;-17
2023/07/24 09:16:08;;;;;;;1.58;1.30;;;22.40;96.90;;;;;;5050867;28;20059;-17
2023/07/24 09:18:41;;;;;;;1.83;1.00;;;22.30;97.20;;;;;;5038465;28;20120;-18
2023/07/24 09:21:07;;;;;;;1.98;1.20;;;22.20;96.60;;;;;;5032405;28;20029;-17
2023/07/24 09:23:32;;;;;;;1.43;1.20;;;22.10;97.30;;;;;;5047268;28;20312;-17
2023/07/24 09:25:58;;;;;;;1.60;1.30;;;22.00;97.50;;;;;;5048969;28;20085;-18
2023/07/24 09:28:24;;;;;;;2.92;1.30;;;22.00;97.60;;;;;;5024925;28;20021;-16
2023/07/24 09:31:00;;;;;;;1.77;1.20;;;21.90;97.70;;;;;;5044991;28;20914;-17
2023/07/24 09:33:37;;;;;;;1.55;1.20;;;21.90;97.60;;;;;;5035686;28;20039;-16
2023/07/24 09:36:08;;;;;;;1.80;1.30;;;21.90;97.70;;;;;;5047643;28;20430;-16
2023/07/24 09:38:35;;;;;;;1.48;1.10;;;21.80;98.10;;;;;;5045545;28;20266;-16
2023/07/24 09:41:02;;;;;;;1.67;1.35;;;21.80;98.50;;;;;;5063294;28;20033;-17
2023/07/24 09:43:28;;;;;;;2.65;1.50;;;21.90;98.80;;;;;;5050249;28;20421;-17
2023/07/24 09:45:55;;;;;;;2.03;1.40;;;21.80;98.70;;;;;;5025070;28;20556;-18
2023/07/24 09:48:23;;;;;;;2.07;1.30;;;21.90;98.80;;;;;;5027068;28;20048;-16
2023/07/24 09:50:52;;;;;;;1.60;1.38;;;21.90;98.80;;;;;;5035353;28;20465;-17
2023/07/24 09:53:31;;;;;;;1.85;1.33;;;21.90;98.90;;;;;;5044695;28;20029;-16
2023/07/24 09:56:04;;;;;;;2.10;1.50;;;22.00;98.10;;;;;;5048006;28;20032;-19
2023/07/24 09:58:32;;;;;;;1.75;1.40;;;22.00;98.20;;;;;;5030750;28;20279;-17
2023/07/24 10:00:58;;;;;;;1.80;1.40;;;22.00;98.60;;;;;;5021049;28;20064;-17
2023/07/24 10:03:24;;;;;;;1.80;1.30;;;22.00;98.50;;;;;;5041262;28;20387;-17
2023/07/24 10:05:52;;;;;;;1.80;1.30;;;22.00;98.40;;;;;;5048651;28;20035;-17
2023/07/24 10:08:19;;;;;;;1.83;1.30;;;22.00;98.30;;;;;;5044162;28;20032;-17
2023/07/24 10:10:51;;;;;;;1.90;1.50;;;22.00;98.00;;;;;;5048703;28;20028;-17
2023/07/24 10:13:17;;;;;;;2.13;1.30;;;22.00;97.80;;;;;;5047448;28;20411;-17
2023/07/24 10:15:46;;;;;;;2.13;1.40;;;21.90;97.60;;;;;;5048843;28;20074;-16
2023/07/24 10:18:11;;;;;;;1.50;1.30;;;21.90;97.60;;;;;;5018962;28;20059;-17
2023/07/24 10:20:41;;;;;;;3.03;1.33;;;21.90;97.70;;;;;;5038762;28;20481;-17
2023/07/24 10:23:10;;;;;;;2.30;1.30;;;21.80;97.80;;;;;;5048093;28;20037;-16
2023/07/24 10:25:43;;;;;;;2.75;1.35;;;21.80;98.10;;;;;;5046526;28;20055;-16
2023/07/24 10:28:16;;;;;;;2.13;1.30;;;21.80;97.70;;;;;;5047821;28;20455;-16
2023/07/24 10:30:42;;;;;;;2.28;1.38;;;21.80;97.80;;;;;;5045990;28;20711;-16
2023/07/24 10:33:11;;;;;;;1.80;1.20;;;21.70;97.90;;;;;;5022774;28;20111;-15
2023/07/24 10:35:45;;;;;;;1.70;1.35;;;21.60;98.00;;;;;;5042892;28;20634;-15
2023/07/24 10:38:12;;;;;;;3.90;1.60;;;21.60;98.30;;;;;;5046726;28;20045;-15
2023/07/24 10:40:43;;;;;;;2.22;1.40;;;21.60;98.20;;;;;;5044854;28;20179;-15
2023/07/24 10:43:20;;;;;;;2.15;1.52;;;21.50;98.30;;;;;;5046146;28;20021;-15
2023/07/24 10:45:49;;;;;;;2.50;1.53;;;21.50;98.20;;;;;;5049005;28;20470;-14
2023/07/24 10:48:20;;;;;;;2.50;1.70;;;21.40;98.90;;;;;;5033581;28;20032;-15
2023/07/24 10:50:47;;;;;;;3.00;1.80;;;21.40;99.40;;;;;;5035631;28;20053;-15
2023/07/24 10:53:18;;;;;;;2.75;1.70;;;21.40;99.90;;;;;;5045854;28;20020;-15
2023/07/24 10:55:45;;;;;;;2.95;1.70;;;21.50;99.90;;;;;;5046982;28;20610;-15
2023/07/24 10:58:12;;;;;;;2.10;1.50;;;21.60;99.90;;;;;;5049991;28;20028;-18
2023/07/24 11:00:42;;;;;;;2.55;1.70;;;21.80;99.90;;;;;;5044787;28;20067;-16
2023/07/24 11:03:13;;;;;;;2.25;1.58;;;21.90;99.90;;;;;;5047457;28;20057;-15
2023/07/24 11:05:46;;;;;;;2.63;1.60;;;22.10;99.90;;;;;;5016200;28;20217;-15
2023/07/24 11:08:17;;;;;;;2.53;1.60;;;22.30;99.90;;;;;;5042546;28;20064;-15
2023/07/24 11:10:47;;;;;;;2.87;1.60;;;22.40;99.90;;;;;;5051894;28;20157;-15
2023/07/24 11:13:13;;;;;;;2.70;1.50;;;22.60;99.90;;;;;;5053242;28;20037;-15
2023/07/24 11:15:39;;;;;;;2.80;1.60;;;22.70;99.90;;;;;;5047706;28;20020;-15
2023/07/24 11:18:08;;;;;;;2.17;1.60;;;22.90;99.90;;;;;;5047064;28;20094;-15
2023/07/24 11:20:43;;;;;;;1.93;1.57;;;23.00;99.90;;;;;;5022535;28;20716;-15
2023/07/24 11:23:10;;;;;;;2.78;1.60;;;23.10;99.90;;;;;;5048515;28;20036;-16
2023/07/24 11:25:37;;;;;;;2.13;1.40;;;23.30;99.90;;;;;;5043496;28;20203;-15
2023/07/24 11:28:05;;;;;;;2.15;1.50;;;23.30;99.90;;;;;;5047398;28;20463;-15
2023/07/24 11:30:31;;;;;;;2.53;1.48;;;23.40;99.90;;;;;;5045650;28;20296;-15
2023/07/24 11:33:00;;;;;;;2.60;1.60;;;23.50;99.90;;;;;;5045895;28;20032;-15
2023/07/24 11:35:27;;;;;;;1.90;1.42;;;23.50;99.90;;;;;;5017523;28;20040;-15
2023/07/24 11:37:53;;;;;;;2.53;1.50;;;23.60;99.90;;;;;;5054403;28;20068;-14
2023/07/24 11:40:19;;;;;;;2.03;1.50;;;23.60;99.90;;;;;;5045013;28;20071;-15
2023/07/24 11:42:49;;;;;;;2.30;1.60;;;23.60;99.90;;;;;;5046348;28;20048;-15
2023/07/24 11:45:15;;;;;;;2.20;1.50;;;23.70;99.70;;;;;;5046975;28;20378;-15
2023/07/24 11:47:42;;;;;;;2.65;1.60;;;23.70;99.30;;;;;;5045693;28;20328;-15
2023/07/24 11:50:09;;;;;;;2.10;1.60;;;23.70;98.80;;;;;;5043662;28;20028;-15
2023/07/24 11:52:45;;;;;;;2.05;1.50;;;23.70;98.90;;;;;;5017553;28;20037;-15
2023/07/24 11:55:13;;;;;;;1.85;1.60;;;23.80;99.30;;;;;;5046354;28;20400;-15
2023/07/24 11:57:39;;;;;;;2.53;1.90;;;23.90;99.90;;;;;;5032672;28;20095;-15
2023/07/24 12:00:06;;;;;;;2.22;1.80;;;24.10;99.90;;;;;;5047413;28;20051;-15
2023/07/24 12:02:34;;;;;;;3.23;1.90;;;24.40;99.90;;;;;;5053934;28;20493;-15
2023/07/24 12:05:01;;;;;;;2.95;1.80;;;24.70;99.90;;;;;;5053520;28;20028;-16
2023/07/24 12:07:34;;;;;;;2.40;1.77;;;24.90;99.90;;;;;;5019180;28;20236;-18
2023/07/24 12:10:07;;;;;;;3.30;2.20;;;25.10;99.90;;;;;;5051343;28;20036;-16
2023/07/24 12:12:46;;;;;;;2.83;2.20;;;25.40;99.90;;;;;;5038016;28;20416;-17
2023/07/24 12:15:13;;;;;;;2.67;2.10;;;25.60;99.90;;;;;;5048161;28;20028;-16
2023/07/24 12:17:39;;;;;;;2.47;2.00;;;25.80;99.90;;;;;;5029410;28;20505;-16
2023/07/24 12:20:08;;;;;;;2.45;1.85;;;25.90;99.90;;;;;;5050916;28;20024;-16
2023/07/24 12:22:38;;;;;;;3.67;2.38;;;26.10;99.90;;;;;;5025098;28;20556;-16
2023/07/24 12:25:06;;;;;;;3.17;2.30;;;26.30;99.90;;;;;;5053526;28;20128;-17
2023/07/24 12:27:32;;;;;;;3.67;2.00;;;26.50;99.90;;;;;;5044197;28;20102;-16
2023/07/24 12:29:58;;;;;;;2.33;1.90;;;26.50;99.20;;;;;;5048222;28;20043;-16
2023/07/24 12:32:24;;;;;;;2.95;2.00;;;26.50;97.90;;;;;;5045071;28;20020;-16
2023/07/24 12:34:53;;;;;;;2.90;2.28;;;26.40;97.40;;;;;;5049279;28;20028;-17
2023/07/24 12:37:20;;;;;;;3.30;2.50;;;26.40;97.30;;;;;;5028071;28;20714;-16
2023/07/24 12:39:47;;;;;;;3.20;2.15;;;26.30;98.00;;;;;;5028162;28;20392;-17
2023/07/24 12:42:13;;;;;;;2.67;2.20;;;26.30;98.40;;;;;;5052092;28;20025;-17
2023/07/24 12:44:39;;;;;;;3.58;2.20;;;26.20;98.50;;;;;;5047572;28;20028;-17
2023/07/24 12:47:05;;;;;;;2.50;2.00;;;26.20;97.90;;;;;;5049876;28;20365;-17